KOAJ/OAJ METAR and TAF weather

Enter ICAO airport designator
Station Type Date Time Source
KOAJ METAR 2022/11/30 22:56 UTC NOAA

KOAJ 302256Z 24006KT 10SM CLR 17/15 A2997 RMK AO2 SLP152 T01670150


Station Type Date Time Source
KOAJ Decoded METAR 2022/11/30 22:56 UTC NOAA

Jacksonville, Albert J Ellis Airport, NC, United States (KOAJ) 34-50N 077-37W
Nov 30, 2022 - 05:56 PM EST / 2022.11.30 2256 UTC
Wind: from the WSW (240 degrees) at 7 MPH (6 KT):0
Visibility: 10 mile(s):0
Sky conditions: clear
Temperature: 62.1 F (16.7 C)
Dew Point: 59.0 F (15.0 C)
Relative Humidity: 89%
Pressure (altimeter): 29.97 in. Hg (1014 hPa)
ob: KOAJ 302256Z 24006KT 10SM CLR 17/15 A2997 RMK AO2 SLP152 T01670150
cycle: 23

Station Type Date Time Source
KOAJ TAF 2022/11/30 20:16 UTC NOAA

TAF
AMD KOAJ 302014Z 3020/0118 24010G15KT P6SM SCT020 OVC040
TEMPO 3020/3023 OVC020
FM010000 32009G15KT P6SM BKN050
FM010500 34007KT P6SM SKC
AMD LTD TO CLD VIS AND WIND

Example: see airport list